sensor_id;sensor_type;location;lat;lon;timestamp;pressure;altitude;pressure_sealevel;temperature;humidity
15260;BME280;34462;51.368;12.364;2023-08-01T00:02:24;20722.41;;;-141.84;88.20
15260;BME280;34462;51.368;12.364;2023-08-01T00:04:52;20771.19;;;-141.84;86.59
15260;BME280;34462;51.368;12.364;2023-08-01T00:07:22;20787.47;;;-141.84;87.04
15260;BME280;34462;51.368;12.364;2023-08-01T00:09:50;20777.28;;;-141.84;87.85
15260;BME280;34462;51.368;12.364;2023-08-01T00:12:19;20750.88;;;-141.84;87.81
15260;BME280;34462;51.368;12.364;2023-08-01T00:14:49;20763.06;;;-141.84;87.95
15260;BME280;34462;51.368;12.364;2023-08-01T00:17:17;20730.53;;;-141.84;88.40
15260;BME280;34462;51.368;12.364;2023-08-01T00:19:46;20771.19;;;-141.84;88.11
15260;BME280;34462;51.368;12.364;2023-08-01T00:22:15;20730.53;;;-141.84;88.26
15260;BME280;34462;51.368;12.364;2023-08-01T00:24:43;20785.44;;;-141.84;87.44
15260;BME280;34462;51.368;12.364;2023-08-01T00:27:12;20736.63;;;-141.84;87.86
15260;BME280;34462;51.368;12.364;2023-08-01T00:29:40;20756.97;;;-141.84;88.45
15260;BME280;34462;51.368;12.364;2023-08-01T00:32:10;20781.38;;;-141.84;87.63
15260;BME280;34462;51.368;12.364;2023-08-01T00:34:42;20779.31;;;-141.84;87.26
15260;BME280;34462;51.368;12.364;2023-08-01T00:37:12;20793.56;;;-141.84;85.93
15260;BME280;34462;51.368;12.364;2023-08-01T00:39:40;20793.56;;;-141.84;86.46
15260;BME280;34462;51.368;12.364;2023-08-01T00:42:09;20769.16;;;-141.84;86.23
15260;BME280;34462;51.368;12.364;2023-08-01T00:44:37;20773.22;;;-141.84;86.07
15260;BME280;34462;51.368;12.364;2023-08-01T00:47:06;20746.81;;;-141.84;85.98
15260;BME280;34462;51.368;12.364;2023-08-01T00:49:36;20767.13;;;-141.84;86.87
15260;BME280;34462;51.368;12.364;2023-08-01T00:52:06;20767.13;;;-141.84;87.28
15260;BME280;34462;51.368;12.364;2023-08-01T00:54:35;20740.69;;;-141.84;87.55
15260;BME280;34462;51.368;12.364;2023-08-01T00:57:04;20732.56;;;-141.84;87.97
15260;BME280;34462;51.368;12.364;2023-08-01T00:59:33;20765.09;;;-141.84;86.98
15260;BME280;34462;51.368;12.364;2023-08-01T01:02:02;20765.09;;;-141.84;87.08
15260;BME280;34462;51.368;12.364;2023-08-01T01:04:32;20716.31;;;-141.84;87.45
15260;BME280;34462;51.368;12.364;2023-08-01T01:07:05;20730.53;;;-141.84;87.56
15260;BME280;34462;51.368;12.364;2023-08-01T01:09:34;20722.41;;;-141.84;87.86
15260;BME280;34462;51.368;12.364;2023-08-01T01:12:03;20714.28;;;-141.84;87.59
15260;BME280;34462;51.368;12.364;2023-08-01T01:14:31;20704.13;;;-141.84;88.08
15260;BME280;34462;51.368;12.364;2023-08-01T01:17:00;20693.94;;;-141.84;88.20
15260;BME280;34462;51.368;12.364;2023-08-01T01:19:28;20720.38;;;-141.84;87.28
15260;BME280;34462;51.368;12.364;2023-08-01T01:21:58;20716.31;;;-141.84;87.35
15260;BME280;34462;51.368;12.364;2023-08-01T01:24:27;20748.84;;;-141.84;87.83
15260;BME280;34462;51.368;12.364;2023-08-01T01:26:57;20740.69;;;-141.84;87.20
15260;BME280;34462;51.368;12.364;2023-08-01T01:29:27;20771.19;;;-141.84;86.19
15260;BME280;34462;51.368;12.364;2023-08-01T01:31:56;20795.59;;;-141.84;84.97
15260;BME280;34462;51.368;12.364;2023-08-01T01:34:26;20781.38;;;-141.84;85.51
15260;BME280;34462;51.368;12.364;2023-08-01T01:36:54;20797.63;;;-141.84;84.80
15260;BME280;34462;51.368;12.364;2023-08-01T01:39:24;20803.72;;;-141.84;84.79
15260;BME280;34462;51.368;12.364;2023-08-01T01:41:52;20795.59;;;-141.84;84.74
15260;BME280;34462;51.368;12.364;2023-08-01T01:44:21;20791.53;;;-141.84;83.85
15260;BME280;34462;51.368;12.364;2023-08-01T01:46:49;20809.81;;;-141.84;83.29
15260;BME280;34462;51.368;12.364;2023-08-01T01:49:18;20793.56;;;-141.84;82.97
15260;BME280;34462;51.368;12.364;2023-08-01T01:51:46;20852.50;;;-141.84;81.65
15260;BME280;34462;51.368;12.364;2023-08-01T01:54:15;20787.47;;;-141.84;82.35
15260;BME280;34462;51.368;12.364;2023-08-01T01:56:45;20803.72;;;-141.84;83.46
15260;BME280;34462;51.368;12.364;2023-08-01T01:59:13;20769.16;;;-141.84;84.11
15260;BME280;34462;51.368;12.364;2023-08-01T02:01:42;20765.09;;;-141.84;85.31
15260;BME280;34462;51.368;12.364;2023-08-01T02:04:10;20754.94;;;-141.84;85.72
15260;BME280;34462;51.368;12.364;2023-08-01T02:06:38;20744.78;;;-141.84;86.75
15260;BME280;34462;51.368;12.364;2023-08-01T02:09:07;20712.25;;;-141.84;87.37
15260;BME280;34462;51.368;12.364;2023-08-01T02:11:36;20704.13;;;-141.84;88.25
15260;BME280;34462;51.368;12.364;2023-08-01T02:14:06;20704.13;;;-141.84;88.47
15260;BME280;34462;51.368;12.364;2023-08-01T02:16:34;20681.75;;;-141.84;89.02
15260;BME280;34462;51.368;12.364;2023-08-01T02:19:03;20679.72;;;-141.84;89.73
15260;BME280;34462;51.368;12.364;2023-08-01T02:21:31;20659.38;;;-141.84;90.06
15260;BME280;34462;51.368;12.364;2023-08-01T02:24:00;20712.25;;;-141.84;90.01
15260;BME280;34462;51.368;12.364;2023-08-01T02:26:29;20689.88;;;-141.84;90.39
15260;BME280;34462;51.368;12.364;2023-08-01T02:28:57;20657.34;;;-141.84;90.09
15260;BME280;34462;51.368;12.364;2023-08-01T02:31:27;20618.72;;;-141.84;91.29
15260;BME280;34462;51.368;12.364;2023-08-01T02:33:56;20661.44;;;-141.84;92.06
15260;BME280;34462;51.368;12.364;2023-08-01T02:36:24;20628.91;;;-141.84;92.55
15260;BME280;34462;51.368;12.364;2023-08-01T02:38:52;20602.47;;;-141.84;93.38
15260;BME280;34462;51.368;12.364;2023-08-01T02:41:21;20598.41;;;-141.84;93.68
15260;BME280;34462;51.368;12.364;2023-08-01T02:43:49;20649.22;;;-141.84;93.54
15260;BME280;34462;51.368;12.364;2023-08-01T02:46:18;20608.56;;;-141.84;93.43
15260;BME280;34462;51.368;12.364;2023-08-01T02:48:49;20576.03;;;-141.84;93.55
15260;BME280;34462;51.368;12.364;2023-08-01T02:51:17;20606.53;;;-141.84;94.01
15260;BME280;34462;51.368;12.364;2023-08-01T02:53:46;20612.63;;;-141.84;94.24
15260;BME280;34462;51.368;12.364;2023-08-01T02:56:14;20584.19;;;-141.84;94.38
15260;BME280;34462;51.368;12.364;2023-08-01T02:58:42;20602.47;;;-141.84;93.34
15260;BME280;34462;51.368;12.364;2023-08-01T03:01:11;20582.16;;;-141.84;93.35
15260;BME280;34462;51.368;12.364;2023-08-01T03:03:40;20616.69;;;-141.84;93.91
15260;BME280;34462;51.368;12.364;2023-08-01T03:06:11;20586.22;;;-141.84;93.97
15260;BME280;34462;51.368;12.364;2023-08-01T03:08:39;20578.09;;;-141.84;94.19
15260;BME280;34462;51.368;12.364;2023-08-01T03:11:08;20622.81;;;-141.84;93.39
15260;BME280;34462;51.368;12.364;2023-08-01T03:13:36;20630.94;;;-141.84;93.18
15260;BME280;34462;51.368;12.364;2023-08-01T03:16:05;20624.84;;;-141.84;93.26
15260;BME280;34462;51.368;12.364;2023-08-01T03:18:33;20639.06;;;-141.84;93.62
15260;BME280;34462;51.368;12.364;2023-08-01T03:21:02;20555.72;;;-141.84;93.90
15260;BME280;34462;51.368;12.364;2023-08-01T03:23:33;20588.25;;;-141.84;93.85
15260;BME280;34462;51.368;12.364;2023-08-01T03:26:01;20588.25;;;-141.84;93.99
15260;BME280;34462;51.368;12.364;2023-08-01T03:28:30;20549.63;;;-141.84;94.59
15260;BME280;34462;51.368;12.364;2023-08-01T03:30:59;20529.28;;;-141.84;94.81
15260;BME280;34462;51.368;12.364;2023-08-01T03:33:27;20580.13;;;-141.84;95.02
15260;BME280;34462;51.368;12.364;2023-08-01T03:35:56;20555.72;;;-141.84;94.80
15260;BME280;34462;51.368;12.364;2023-08-01T03:38:24;20578.09;;;-141.84;94.56
15260;BME280;34462;51.368;12.364;2023-08-01T03:40:54;20590.28;;;-141.84;94.38
15260;BME280;34462;51.368;12.364;2023-08-01T03:43:23;20596.38;;;-141.84;94.59
15260;BME280;34462;51.368;12.364;2023-08-01T03:45:51;20600.44;;;-141.84;94.44
15260;BME280;34462;51.368;12.364;2023-08-01T03:48:20;20602.47;;;-141.84;93.79
15260;BME280;34462;51.368;12.364;2023-08-01T03:50:49;20592.31;;;-141.84;93.13
15260;BME280;34462;51.368;12.364;2023-08-01T03:53:17;20580.13;;;-141.84;93.42
15260;BME280;34462;51.368;12.364;2023-08-01T03:55:47;20551.66;;;-141.84;93.72
15260;BME280;34462;51.368;12.364;2023-08-01T03:58:17;20539.47;;;-141.84;93.76
15260;BME280;34462;51.368;12.364;2023-08-01T04:00:46;20598.41;;;-141.84;94.13
15260;BME280;34462;51.368;12.364;2023-08-01T04:03:15;20596.38;;;-141.84;94.17
15260;BME280;34462;51.368;12.364;2023-08-01T04:05:43;20596.38;;;-141.84;94.36
15260;BME280;34462;51.368;12.364;2023-08-01T04:08:12;20588.25;;;-141.84;93.75
15260;BME280;34462;51.368;12.364;2023-08-01T04:10:40;20618.72;;;-141.84;93.97
15260;BME280;34462;51.368;12.364;2023-08-01T04:13:09;20608.56;;;-141.84;93.65
15260;BME280;34462;51.368;12.364;2023-08-01T04:15:39;20604.50;;;-141.84;93.38
15260;BME280;34462;51.368;12.364;2023-08-01T04:18:07;20592.31;;;-141.84;93.51
15260;BME280;34462;51.368;12.364;2023-08-01T04:20:36;20618.72;;;-141.84;93.83
15260;BME280;34462;51.368;12.364;2023-08-01T04:23:04;20639.06;;;-141.84;93.76
15260;BME280;34462;51.368;12.364;2023-08-01T04:25:33;20574.00;;;-141.84;94.02
15260;BME280;34462;51.368;12.364;2023-08-01T04:28:01;20612.63;;;-141.84;94.29
15260;BME280;34462;51.368;12.364;2023-08-01T04:30:30;20610.59;;;-141.84;94.01
15260;BME280;34462;51.368;12.364;2023-08-01T04:33:01;20590.28;;;-141.84;94.13
15260;BME280;34462;51.368;12.364;2023-08-01T04:35:30;20622.81;;;-141.84;94.57
15260;BME280;34462;51.368;12.364;2023-08-01T04:37:58;20606.53;;;-141.84;94.21
15260;BME280;34462;51.368;12.364;2023-08-01T04:40:27;20586.22;;;-141.84;93.99
15260;BME280;34462;51.368;12.364;2023-08-01T04:42:55;20588.25;;;-141.84;93.98
15260;BME280;34462;51.368;12.364;2023-08-01T04:45:24;20620.78;;;-141.84;94.20
15260;BME280;34462;51.368;12.364;2023-08-01T04:47:52;20584.19;;;-141.84;94.60
15260;BME280;34462;51.368;12.364;2023-08-01T04:50:22;20580.13;;;-141.84;94.65
15260;BME280;34462;51.368;12.364;2023-08-01T04:52:51;20624.84;;;-141.84;94.81
15260;BME280;34462;51.368;12.364;2023-08-01T04:55:19;20604.50;;;-141.84;94.26
15260;BME280;34462;51.368;12.364;2023-08-01T04:57:48;20618.72;;;-141.84;93.58
15260;BME280;34462;51.368;12.364;2023-08-01T05:00:16;20639.06;;;-141.84;92.83
15260;BME280;34462;51.368;12.364;2023-08-01T05:02:45;20653.28;;;-141.84;92.57
15260;BME280;34462;51.368;12.364;2023-08-01T05:05:14;20643.13;;;-141.84;92.50
15260;BME280;34462;51.368;12.364;2023-08-01T05:07:44;20614.66;;;-141.84;92.30
15260;BME280;34462;51.368;12.364;2023-08-01T05:10:13;20614.66;;;-141.84;92.44
15260;BME280;34462;51.368;12.364;2023-08-01T05:12:43;20618.72;;;-141.84;92.96
15260;BME280;34462;51.368;12.364;2023-08-01T05:15:12;20635.00;;;-141.84;92.28
15260;BME280;34462;51.368;12.364;2023-08-01T05:17:41;20637.03;;;-141.84;92.84
15260;BME280;34462;51.368;12.364;2023-08-01T05:20:10;20641.09;;;-141.84;92.81
15260;BME280;34462;51.368;12.364;2023-08-01T05:22:38;20598.41;;;-141.84;93.06
15260;BME280;34462;51.368;12.364;2023-08-01T05:25:09;20618.72;;;-141.84;93.33
15260;BME280;34462;51.368;12.364;2023-08-01T05:27:37;20608.56;;;-141.84;93.20
15260;BME280;34462;51.368;12.364;2023-08-01T05:30:07;20624.84;;;-141.84;93.17
15260;BME280;34462;51.368;12.364;2023-08-01T05:32:35;20616.69;;;-141.84;93.01
15260;BME280;34462;51.368;12.364;2023-08-01T05:35:05;20641.09;;;-141.84;93.35
15260;BME280;34462;51.368;12.364;2023-08-01T05:37:33;20665.50;;;-141.84;93.06
15260;BME280;34462;51.368;12.364;2023-08-01T05:40:02;20600.44;;;-141.84;93.03
15260;BME280;34462;51.368;12.364;2023-08-01T05:42:32;20606.53;;;-141.84;92.76
15260;BME280;34462;51.368;12.364;2023-08-01T05:45:01;20635.00;;;-141.84;92.96
15260;BME280;34462;51.368;12.364;2023-08-01T05:47:31;20610.59;;;-141.84;93.01
15260;BME280;34462;51.368;12.364;2023-08-01T05:49:59;20612.63;;;-141.84;93.15
15260;BME280;34462;51.368;12.364;2023-08-01T05:52:29;20653.28;;;-141.84;92.50
15260;BME280;34462;51.368;12.364;2023-08-01T05:54:58;20610.59;;;-141.84;92.62
15260;BME280;34462;51.368;12.364;2023-08-01T05:57:26;20643.13;;;-141.84;93.03
15260;BME280;34462;51.368;12.364;2023-08-01T05:59:56;20661.44;;;-141.84;93.02
15260;BME280;34462;51.368;12.364;2023-08-01T06:02:25;20622.81;;;-141.84;93.47
15260;BME280;34462;51.368;12.364;2023-08-01T06:04:53;20641.09;;;-141.84;93.17
15260;BME280;34462;51.368;12.364;2023-08-01T06:07:22;20612.63;;;-141.84;93.07
15260;BME280;34462;51.368;12.364;2023-08-01T06:09:51;20659.38;;;-141.84;92.70
15260;BME280;34462;51.368;12.364;2023-08-01T06:12:19;20659.38;;;-141.84;92.86
15260;BME280;34462;51.368;12.364;2023-08-01T06:14:48;20630.94;;;-141.84;93.36
15260;BME280;34462;51.368;12.364;2023-08-01T06:17:18;20671.59;;;-141.84;93.24
15260;BME280;34462;51.368;12.364;2023-08-01T06:19:46;20653.28;;;-141.84;92.69
15260;BME280;34462;51.368;12.364;2023-08-01T06:22:17;20687.84;;;-141.84;92.28
15260;BME280;34462;51.368;12.364;2023-08-01T06:24:45;20655.31;;;-141.84;92.00
15260;BME280;34462;51.368;12.364;2023-08-01T06:27:13;20714.28;;;-141.84;91.80
15260;BME280;34462;51.368;12.364;2023-08-01T06:29:42;20677.69;;;-141.84;92.08
15260;BME280;34462;51.368;12.364;2023-08-01T06:32:11;20669.56;;;-141.84;91.21
15260;BME280;34462;51.368;12.364;2023-08-01T06:34:41;20681.75;;;-141.84;91.27
15260;BME280;34462;51.368;12.364;2023-08-01T06:37:10;20698.00;;;-141.84;90.43
15260;BME280;34462;51.368;12.364;2023-08-01T06:39:38;20693.94;;;-141.84;90.80
15260;BME280;34462;51.368;12.364;2023-08-01T06:42:07;20708.19;;;-141.84;91.60
15260;BME280;34462;51.368;12.364;2023-08-01T06:44:35;20720.38;;;-141.84;90.53
15260;BME280;34462;51.368;12.364;2023-08-01T06:47:04;20722.41;;;-141.84;90.34
15260;BME280;34462;51.368;12.364;2023-08-01T06:49:33;20693.94;;;-141.84;89.95
15260;BME280;34462;51.368;12.364;2023-08-01T06:52:03;20702.09;;;-141.84;90.59
15260;BME280;34462;51.368;12.364;2023-08-01T06:54:32;20687.84;;;-141.84;90.52
15260;BME280;34462;51.368;12.364;2023-08-01T06:57:03;20700.03;;;-141.84;90.73
15260;BME280;34462;51.368;12.364;2023-08-01T06:59:32;20724.44;;;-141.84;90.63
15260;BME280;34462;51.368;12.364;2023-08-01T07:02:01;20695.97;;;-141.84;90.66
15260;BME280;34462;51.368;12.364;2023-08-01T07:04:29;20698.00;;;-141.84;90.78
15260;BME280;34462;51.368;12.364;2023-08-01T07:06:58;20691.91;;;-141.84;90.93
15260;BME280;34462;51.368;12.364;2023-08-01T07:09:27;20736.63;;;-141.84;91.22
15260;BME280;34462;51.368;12.364;2023-08-01T07:11:56;20691.91;;;-141.84;90.74
15260;BME280;34462;51.368;12.364;2023-08-01T07:14:24;20681.75;;;-141.84;91.52
15260;BME280;34462;51.368;12.364;2023-08-01T07:16:53;20718.34;;;-141.84;91.16
15260;BME280;34462;51.368;12.364;2023-08-01T07:19:21;20771.19;;;-141.84;89.48
15260;BME280;34462;51.368;12.364;2023-08-01T07:21:50;20748.84;;;-141.84;89.27
15260;BME280;34462;51.368;12.364;2023-08-01T07:24:18;20718.34;;;-141.84;89.82
15260;BME280;34462;51.368;12.364;2023-08-01T07:26:48;20708.19;;;-141.84;89.95
15260;BME280;34462;51.368;12.364;2023-08-01T07:29:17;20720.38;;;-141.84;90.20
15260;BME280;34462;51.368;12.364;2023-08-01T07:31:45;20712.25;;;-141.84;89.72
15260;BME280;34462;51.368;12.364;2023-08-01T07:34:14;20667.53;;;-141.84;89.48
15260;BME280;34462;51.368;12.364;2023-08-01T07:36:42;20693.94;;;-141.84;89.40
15260;BME280;34462;51.368;12.364;2023-08-01T07:39:11;20673.63;;;-141.84;89.68
15260;BME280;34462;51.368;12.364;2023-08-01T07:41:39;20643.13;;;-141.84;89.65
15260;BME280;34462;51.368;12.364;2023-08-01T07:44:09;20663.47;;;-141.84;90.22
15260;BME280;34462;51.368;12.364;2023-08-01T07:46:38;20651.25;;;-141.84;90.52
15260;BME280;34462;51.368;12.364;2023-08-01T07:49:06;20645.16;;;-141.84;90.18
15260;BME280;34462;51.368;12.364;2023-08-01T07:51:35;20687.84;;;-141.84;89.78
15260;BME280;34462;51.368;12.364;2023-08-01T07:54:04;20663.47;;;-141.84;89.91
15260;BME280;34462;51.368;12.364;2023-08-01T07:56:32;20677.69;;;-141.84;90.72
15260;BME280;34462;51.368;12.364;2023-08-01T07:59:00;20685.81;;;-141.84;91.43
15260;BME280;34462;51.368;12.364;2023-08-01T08:01:30;20651.25;;;-141.84;91.28
15260;BME280;34462;51.368;12.364;2023-08-01T08:03:59;20704.13;;;-141.84;90.10
15260;BME280;34462;51.368;12.364;2023-08-01T08:06:30;20718.34;;;-141.84;89.58
15260;BME280;34462;51.368;12.364;2023-08-01T08:08:58;20718.34;;;-141.84;89.94
15260;BME280;34462;51.368;12.364;2023-08-01T08:11:27;20700.03;;;-141.84;89.46
15260;BME280;34462;51.368;12.364;2023-08-01T08:13:55;20689.88;;;-141.84;88.84
15260;BME280;34462;51.368;12.364;2023-08-01T08:16:24;20728.50;;;-141.84;89.04
15260;BME280;34462;51.368;12.364;2023-08-01T08:18:53;20730.53;;;-141.84;87.53
15260;BME280;34462;51.368;12.364;2023-08-01T08:21:22;20756.97;;;-141.84;86.78
15260;BME280;34462;51.368;12.364;2023-08-01T08:23:50;20728.50;;;-141.84;87.33
15260;BME280;34462;51.368;12.364;2023-08-01T08:26:19;20748.84;;;-141.84;87.14
15260;BME280;34462;51.368;12.364;2023-08-01T08:28:48;20756.97;;;-141.84;87.33
15260;BME280;34462;51.368;12.364;2023-08-01T08:31:16;20815.91;;;-141.84;86.02
15260;BME280;34462;51.368;12.364;2023-08-01T08:33:45;20797.63;;;-141.84;85.39
15260;BME280;34462;51.368;12.364;2023-08-01T08:36:14;20822.03;;;-141.84;86.07
15260;BME280;34462;51.368;12.364;2023-08-01T08:38:43;20836.25;;;-141.84;85.21
15260;BME280;34462;51.368;12.364;2023-08-01T08:41:14;20866.75;;;-141.84;85.20
15260;BME280;34462;51.368;12.364;2023-08-01T08:43:48;20858.59;;;-141.84;84.27
15260;BME280;34462;51.368;12.364;2023-08-01T08:46:17;20856.56;;;-141.84;84.60
15260;BME280;34462;51.368;12.364;2023-08-01T08:48:48;20854.53;;;-141.84;85.17
15260;BME280;34462;51.368;12.364;2023-08-01T08:51:18;20913.50;;;-141.84;83.36
15260;BME280;34462;51.368;12.364;2023-08-01T08:53:47;20866.75;;;-141.84;84.64
15260;BME280;34462;51.368;12.364;2023-08-01T08:56:19;20817.94;;;-141.84;84.79
15260;BME280;34462;51.368;12.364;2023-08-01T08:58:49;20797.63;;;-141.84;85.16
15260;BME280;34462;51.368;12.364;2023-08-01T09:01:19;20775.25;;;-141.84;85.87
15260;BME280;34462;51.368;12.364;2023-08-01T09:03:47;20793.56;;;-141.84;86.53
15260;BME280;34462;51.368;12.364;2023-08-01T09:06:20;20805.75;;;-141.84;86.78
15260;BME280;34462;51.368;12.364;2023-08-01T09:08:58;20824.06;;;-141.84;87.10
15260;BME280;34462;51.368;12.364;2023-08-01T09:11:35;20822.03;;;-141.84;86.48
15260;BME280;34462;51.368;12.364;2023-08-01T09:14:06;20824.06;;;-141.84;86.15
15260;BME280;34462;51.368;12.364;2023-08-01T09:16:35;20832.19;;;-141.84;86.41
15260;BME280;34462;51.368;12.364;2023-08-01T09:19:06;20856.56;;;-141.84;86.39
15260;BME280;34462;51.368;12.364;2023-08-01T09:21:38;20862.69;;;-141.84;86.53
15260;BME280;34462;51.368;12.364;2023-08-01T09:24:10;20907.41;;;-141.84;85.91
15260;BME280;34462;51.368;12.364;2023-08-01T09:26:40;20929.75;;;-141.84;85.50
15260;BME280;34462;51.368;12.364;2023-08-01T09:29:09;21007.00;;;-141.84;83.78
15260;BME280;34462;51.368;12.364;2023-08-01T09:31:39;20992.78;;;-141.84;83.04
15260;BME280;34462;51.368;12.364;2023-08-01T09:34:18;21078.16;;;-141.84;81.82
15260;BME280;34462;51.368;12.364;2023-08-01T09:36:49;21137.13;;;-141.84;80.08
15260;BME280;34462;51.368;12.364;2023-08-01T09:39:19;21175.75;;;-141.84;79.17
15260;BME280;34462;51.368;12.364;2023-08-01T09:41:55;21204.22;;;-141.84;78.31
15260;BME280;34462;51.368;12.364;2023-08-01T09:44:25;21248.94;;;-141.84;77.00
15260;BME280;34462;51.368;12.364;2023-08-01T09:46:58;21204.22;;;-141.84;77.60
15260;BME280;34462;51.368;12.364;2023-08-01T09:49:28;21137.13;;;-141.84;77.74
15260;BME280;34462;51.368;12.364;2023-08-01T09:51:58;21078.16;;;-141.84;79.00
15260;BME280;34462;51.368;12.364;2023-08-01T09:54:28;21082.25;;;-141.84;79.72
15260;BME280;34462;51.368;12.364;2023-08-01T09:56:58;21013.13;;;-141.84;80.44
15260;BME280;34462;51.368;12.364;2023-08-01T09:59:27;21065.97;;;-141.84;81.11
15260;BME280;34462;51.368;12.364;2023-08-01T10:01:55;20970.41;;;-141.84;81.43
15260;BME280;34462;51.368;12.364;2023-08-01T10:04:29;20887.06;;;-141.84;82.56
15260;BME280;34462;51.368;12.364;2023-08-01T10:07:00;20872.84;;;-141.84;83.57
15260;BME280;34462;51.368;12.364;2023-08-01T10:09:32;20878.94;;;-141.84;83.20
15260;BME280;34462;51.368;12.364;2023-08-01T10:12:03;20899.28;;;-141.84;83.60
15260;BME280;34462;51.368;12.364;2023-08-01T10:14:33;20878.94;;;-141.84;83.82
15260;BME280;34462;51.368;12.364;2023-08-01T10:17:02;20874.88;;;-141.84;83.48
15260;BME280;34462;51.368;12.364;2023-08-01T10:19:32;20862.69;;;-141.84;84.07
15260;BME280;34462;51.368;12.364;2023-08-01T10:22:03;20878.94;;;-141.84;84.30
15260;BME280;34462;51.368;12.364;2023-08-01T10:24:33;20927.72;;;-141.84;84.05
15260;BME280;34462;51.368;12.364;2023-08-01T10:27:12;20986.69;;;-141.84;82.35
15260;BME280;34462;51.368;12.364;2023-08-01T10:29:41;21019.22;;;-141.84;81.65
15260;BME280;34462;51.368;12.364;2023-08-01T10:32:10;21045.63;;;-141.84;80.94
15260;BME280;34462;51.368;12.364;2023-08-01T10:34:39;21084.28;;;-141.84;79.72
15260;BME280;34462;51.368;12.364;2023-08-01T10:37:09;21108.66;;;-141.84;79.68
15260;BME280;34462;51.368;12.364;2023-08-01T10:39:37;21147.28;;;-141.84;78.38
15260;BME280;34462;51.368;12.364;2023-08-01T10:42:06;21210.31;;;-141.84;77.25
15260;BME280;34462;51.368;12.364;2023-08-01T10:44:45;21271.31;;;-141.84;76.73
15260;BME280;34462;51.368;12.364;2023-08-01T10:47:14;21261.16;;;-141.84;75.87
15260;BME280;34462;51.368;12.364;2023-08-01T10:49:53;21346.53;;;-141.84;75.12
15260;BME280;34462;51.368;12.364;2023-08-01T10:52:25;21393.31;;;-141.84;72.88
15260;BME280;34462;51.368;12.364;2023-08-01T10:54:59;21431.94;;;-141.84;73.48
15260;BME280;34462;51.368;12.364;2023-08-01T10:57:28;21415.66;;;-141.84;73.94
15260;BME280;34462;51.368;12.364;2023-08-01T10:59:58;21399.41;;;-141.84;74.71
15260;BME280;34462;51.368;12.364;2023-08-01T11:02:28;21436.00;;;-141.84;73.58
15260;BME280;34462;51.368;12.364;2023-08-01T11:04:58;21517.31;;;-141.84;71.14
15260;BME280;34462;51.368;12.364;2023-08-01T11:07:29;21547.81;;;-141.84;69.18
15260;BME280;34462;51.368;12.364;2023-08-01T11:10:09;21562.06;;;-141.84;68.39
15260;BME280;34462;51.368;12.364;2023-08-01T11:12:39;21619.00;;;-141.84;66.95
15260;BME280;34462;51.368;12.364;2023-08-01T11:15:09;21600.69;;;-141.84;66.26
15260;BME280;34462;51.368;12.364;2023-08-01T11:17:38;21521.41;;;-141.84;66.58
15260;BME280;34462;51.368;12.364;2023-08-01T11:20:09;21606.78;;;-141.84;67.35
15260;BME280;34462;51.368;12.364;2023-08-01T11:22:52;21755.22;;;-141.84;65.09
15260;BME280;34462;51.368;12.364;2023-08-01T11:25:32;21720.66;;;-141.84;65.38
15260;BME280;34462;51.368;12.364;2023-08-01T11:28:06;21804.03;;;-141.84;62.40
15260;BME280;34462;51.368;12.364;2023-08-01T11:30:35;21938.22;;;-141.84;61.36
15260;BME280;34462;51.368;12.364;2023-08-01T11:33:14;21893.50;;;-141.84;62.01
15260;BME280;34462;51.368;12.364;2023-08-01T11:35:43;21907.72;;;-141.84;60.94
15260;BME280;34462;51.368;12.364;2023-08-01T11:38:12;21938.22;;;-141.84;60.72
15260;BME280;34462;51.368;12.364;2023-08-01T11:40:41;21928.06;;;-141.84;60.49
15260;BME280;34462;51.368;12.364;2023-08-01T11:43:10;21997.19;;;-141.84;60.45
15260;BME280;34462;51.368;12.364;2023-08-01T11:45:49;22041.94;;;-141.84;60.00
15260;BME280;34462;51.368;12.364;2023-08-01T11:48:17;22064.31;;;-141.84;57.90
15260;BME280;34462;51.368;12.364;2023-08-01T11:50:46;21921.97;;;-141.84;58.62
15260;BME280;34462;51.368;12.364;2023-08-01T11:53:19;21917.91;;;-141.84;59.52
15260;BME280;34462;51.368;12.364;2023-08-01T11:55:49;21993.13;;;-141.84;56.76
15260;BME280;34462;51.368;12.364;2023-08-01T11:58:29;21968.72;;;-141.84;56.85
15260;BME280;34462;51.368;12.364;2023-08-01T12:01:05;21960.59;;;-141.84;56.51
15260;BME280;34462;51.368;12.364;2023-08-01T12:03:43;22019.56;;;-141.84;56.19
15260;BME280;34462;51.368;12.364;2023-08-01T12:06:12;22127.34;;;-141.84;55.94
15260;BME280;34462;51.368;12.364;2023-08-01T12:08:44;22133.44;;;-141.84;55.21
15260;BME280;34462;51.368;12.364;2023-08-01T12:11:19;22204.63;;;-141.84;54.14
15260;BME280;34462;51.368;12.364;2023-08-01T12:14:00;22125.31;;;-141.84;54.48
15260;BME280;34462;51.368;12.364;2023-08-01T12:16:29;22054.13;;;-141.84;55.07
15260;BME280;34462;51.368;12.364;2023-08-01T12:18:58;22088.72;;;-141.84;55.84
15260;BME280;34462;51.368;12.364;2023-08-01T12:21:28;22078.53;;;-141.84;55.88
15260;BME280;34462;51.368;12.364;2023-08-01T12:23:58;22062.28;;;-141.84;54.93
15260;BME280;34462;51.368;12.364;2023-08-01T12:26:26;21997.19;;;-141.84;55.59
15260;BME280;34462;51.368;12.364;2023-08-01T12:28:55;21940.25;;;-141.84;56.18
15260;BME280;34462;51.368;12.364;2023-08-01T12:31:24;21938.22;;;-141.84;54.97
15260;BME280;34462;51.368;12.364;2023-08-01T12:33:52;21940.25;;;-141.84;56.24
15260;BME280;34462;51.368;12.364;2023-08-01T12:36:21;21899.59;;;-141.84;55.57
15260;BME280;34462;51.368;12.364;2023-08-01T12:38:50;21962.63;;;-141.84;55.32
15260;BME280;34462;51.368;12.364;2023-08-01T12:41:20;21956.53;;;-141.84;56.50
15260;BME280;34462;51.368;12.364;2023-08-01T12:43:48;21962.63;;;-141.84;57.59